Aeroporto :
LOGIN :

Iscrizione | Disclaimer

   EN    FR    IT 

 










Sommario :    VFR   VFR Marginale   IFR   IFR Intensivo   IFR Molto Intensivo
Visibilità : 
Base nubi : 
>= 8 km
>= 3000ft
5 / 8 km
1000 / 3000 ft
1500m / 5 km
500 / 1000 ft
800 / 1500m
200 / 500 ft
< 800m
< 200 ft
Simboli :   Temporali  Nebbia  Neve Forte  Precipitazioni Forti  Vento > 20 kt
SIGMETs :   Varie  Temporali  Ghiacco  Turbolenza  Onda orograficha  Ceneri Vulcaniche






- Altitudine del aeroporto : 55 ft
- Codice IATA : DSA


EGCN - Robin Hood Doncaster Sheffield

ULTIMO METAR :
  • 170650Z 30006KT CAVOK 03/01 Q1036

METARs OBSOLETI :
  • 170620Z 28006KT CAVOK 04/01 Q1035
  • 170550Z 29006KT CAVOK 05/02 Q1035
  • 170520Z 29007KT CAVOK 05/02 Q1035
  • 170450Z 29007KT CAVOK 04/01 Q1035
  • 170420Z 29008KT CAVOK 04/01 Q1035

TAF TAF EGCN
Valido dal 17 a 06 ore il 18 a 06 ore UTC


170453Z 1706/1806 28006KT CAVOK
PROB30 1706/1710 7000
BECMG 1716/1719 4000 BR
TEMPO 1717/1806 0300 FG FZFG VV///



MetMap, La meteo Aeronautica in un colpo d'occhio ! - Copyright ORBIFLY Dicembre 2007 - Disclaimer

ORBIFLY MET'MAP TEAM :

Programmazione e sviluppo : Alexandra Zaïnal
Concezione : Baudouin d'Aumeries
Aiuto per la programmazione : Marc-Olivier Méhu
Supporto tecnico e logistico : Manuel Goepfert
Aiuto per la traduzione : Arnaldo La Scala

Contatto : metmap@orbifly.com




FONTI E CREDITI :

   NOAA